Time;durP1;ratioP1;P1;durP2;ratioP2;P2;SDS_P1;SDS_P2;PMS_P1;PMS_P2;Temp;Humidity;BMP_temperature;BMP_pressure;BME280_temperature;BME280_humidity;BME280_pressure;Samples;Min_cycle;Max_cycle;Signal;HPM_P1;HPM_P2
2021/11/30 00:01:38;;;;;;;10.00;3.03;;;7.10;99.90;;;;;;5009953;28;20218;-85
2021/11/30 00:04:05;;;;;;;11.83;3.27;;;7.10;99.90;;;;;;5010152;28;20210;-88
2021/11/30 00:06:33;;;;;;;11.00;3.63;;;7.10;99.90;;;;;;5009909;28;20199;-84
2021/11/30 00:09:10;;;;;;;15.70;5.23;;;7.10;99.90;;;;;;5011173;28;20196;-85
2021/11/30 00:11:37;;;;;;;13.03;4.27;;;7.00;99.90;;;;;;5012096;28;20246;-86
2021/11/30 00:14:05;;;;;;;11.63;4.40;;;7.00;99.90;;;;;;5014111;28;20218;-85
2021/11/30 00:16:32;;;;;;;23.20;6.00;;;7.10;99.90;;;;;;5013807;28;20231;-85
2021/11/30 00:19:00;;;;;;;15.43;5.80;;;7.10;99.90;;;;;;5014863;28;20209;-84
2021/11/30 00:21:27;;;;;;;17.83;5.50;;;7.10;99.90;;;;;;5014096;28;20547;-85
2021/11/30 00:23:54;;;;;;;18.60;5.90;;;7.10;99.90;;;;;;5014529;28;20215;-85
2021/11/30 00:26:21;;;;;;;19.30;4.60;;;7.20;99.90;;;;;;5014907;28;20203;-86
2021/11/30 00:28:47;;;;;;;19.93;5.47;;;7.20;99.90;;;;;;5014610;28;20211;-86
2021/11/30 00:31:14;;;;;;;13.63;5.30;;;7.20;99.90;;;;;;5013665;28;20267;-87
2021/11/30 00:33:42;;;;;;;18.10;5.40;;;7.30;99.90;;;;;;5012860;28;20207;-87
2021/11/30 00:36:10;;;;;;;23.43;6.57;;;7.30;99.90;;;;;;5016262;28;20237;-87
2021/11/30 00:38:37;;;;;;;18.50;6.63;;;7.40;99.90;;;;;;5016301;28;20200;-84
2021/11/30 00:41:04;;;;;;;11.73;5.03;;;7.40;99.90;;;;;;5020834;28;20203;-85
2021/11/30 00:43:33;;;;;;;16.87;5.20;;;7.40;99.90;;;;;;5017278;28;20199;-84
2021/11/30 00:46:10;;;;;;;21.20;5.87;;;7.40;99.90;;;;;;5034312;28;20808;-88
2021/11/30 00:48:37;;;;;;;16.10;5.83;;;7.50;99.90;;;;;;5023603;28;20492;-88
2021/11/30 00:51:07;;;;;;;14.30;6.00;;;7.50;99.90;;;;;;5014065;28;20207;-84
2021/11/30 00:53:36;;;;;;;19.60;6.70;;;7.50;99.90;;;;;;5013877;28;20204;-86
2021/11/30 00:56:04;;;;;;;17.80;6.90;;;7.60;99.90;;;;;;5013060;28;20242;-89
2021/11/30 00:58:31;;;;;;;18.10;7.10;;;7.60;99.90;;;;;;5016711;28;20215;-88
2021/11/30 01:00:58;;;;;;;18.23;7.47;;;7.70;99.90;;;;;;5014737;28;20211;-88
2021/11/30 01:03:25;;;;;;;11.97;6.40;;;7.80;99.90;;;;;;5014098;28;20294;-88
2021/11/30 01:05:52;;;;;;;11.70;6.73;;;7.80;99.90;;;;;;5014384;28;20218;-86
2021/11/30 01:08:19;;;;;;;15.73;7.80;;;7.80;99.90;;;;;;5008901;28;20196;-86
2021/11/30 01:10:47;;;;;;;20.67;8.43;;;7.80;99.90;;;;;;4995177;28;20207;-87
2021/11/30 01:13:14;;;;;;;16.20;7.67;;;7.90;99.90;;;;;;4994780;28;20247;-86
2021/11/30 01:15:41;;;;;;;13.33;7.03;;;7.90;99.90;;;;;;4995467;28;20227;-88
2021/11/30 01:18:09;;;;;;;17.47;7.20;;;7.90;99.90;;;;;;5014648;28;20218;-87
2021/11/30 01:20:36;;;;;;;12.07;6.33;;;7.90;99.90;;;;;;5013275;28;20208;-88
2021/11/30 01:23:04;;;;;;;16.63;6.80;;;8.00;99.90;;;;;;5012944;28;20205;-84
2021/11/30 01:25:31;;;;;;;10.97;5.87;;;8.10;99.90;;;;;;5013444;28;20848;-87
2021/11/30 01:28:00;;;;;;;13.23;6.47;;;8.10;99.90;;;;;;5013854;28;20210;-86
2021/11/30 01:30:27;;;;;;;10.17;5.30;;;8.20;99.90;;;;;;5013871;28;20214;-84
2021/11/30 01:32:54;;;;;;;13.03;4.17;;;8.30;99.90;;;;;;5014746;28;20202;-88
2021/11/30 01:35:21;;;;;;;14.43;4.47;;;8.20;99.90;;;;;;5013777;28;20651;-88
2021/11/30 01:37:49;;;;;;;9.63;3.67;;;8.30;99.90;;;;;;5013781;28;20269;-84
2021/11/30 01:40:18;;;;;;;12.67;3.30;;;8.40;99.90;;;;;;5012766;28;20195;-85
2021/11/30 01:42:47;;;;;;;12.30;4.37;;;8.50;99.90;;;;;;5015009;28;20560;-87
2021/11/30 01:45:23;;;;;;;17.70;5.23;;;8.50;99.90;;;;;;5016276;28;20213;-84
2021/11/30 01:48:09;;;;;;;13.20;5.37;;;8.60;99.90;;;;;;5017105;28;20195;-85
2021/11/30 01:50:39;;;;;;;10.20;5.77;;;8.60;99.90;;;;;;5015047;28;20211;-84
2021/11/30 01:53:07;;;;;;;12.73;6.13;;;8.60;99.90;;;;;;5013907;28;20215;-85
2021/11/30 01:55:34;;;;;;;25.20;7.37;;;8.60;99.90;;;;;;5013458;28;20230;-84
2021/11/30 01:58:02;;;;;;;13.17;7.27;;;8.60;99.90;;;;;;5013016;28;20235;-84
2021/11/30 02:00:30;;;;;;;14.20;7.87;;;8.70;99.90;;;;;;5012533;28;20324;-85
2021/11/30 02:02:58;;;;;;;16.93;8.03;;;8.70;99.90;;;;;;5012967;28;20229;-84
2021/11/30 02:05:25;;;;;;;18.10;9.50;;;8.70;99.90;;;;;;5011652;28;20207;-85
2021/11/30 02:07:51;;;;;;;21.93;9.20;;;8.70;99.90;;;;;;5011061;28;20520;-83
2021/11/30 02:10:19;;;;;;;17.50;10.00;;;8.70;99.90;;;;;;5010307;28;20215;-82
2021/11/30 02:12:46;;;;;;;18.17;9.80;;;8.70;99.90;;;;;;5025447;28;20247;-85
2021/11/30 02:15:14;;;;;;;28.23;10.43;;;8.70;99.90;;;;;;5029898;28;20206;-86
2021/11/30 02:17:42;;;;;;;22.97;9.87;;;8.80;99.90;;;;;;5023982;28;20206;-83
2021/11/30 02:20:12;;;;;;;17.53;9.63;;;8.80;99.90;;;;;;5011397;28;20195;-84
2021/11/30 02:22:39;;;;;;;23.83;9.47;;;8.80;99.90;;;;;;5012454;28;20203;-84
2021/11/30 02:25:07;;;;;;;23.07;10.67;;;8.80;99.90;;;;;;5012443;28;20273;-83
2021/11/30 02:27:34;;;;;;;23.43;8.43;;;8.90;99.90;;;;;;5011375;28;20199;-85
2021/11/30 02:30:00;;;;;;;23.00;7.80;;;8.90;99.90;;;;;;5011655;28;20207;-84
2021/11/30 02:32:27;;;;;;;19.93;8.10;;;8.90;99.90;;;;;;5011672;28;20213;-84
2021/11/30 02:34:54;;;;;;;28.43;7.67;;;8.90;99.90;;;;;;5011487;28;20214;-88
2021/11/30 02:37:25;;;;;;;25.50;7.73;;;8.90;99.90;;;;;;5012276;28;20227;-84
2021/11/30 02:39:53;;;;;;;19.67;8.50;;;9.00;99.90;;;;;;5012619;28;20199;-82
2021/11/30 02:42:20;;;;;;;23.13;9.20;;;9.00;99.90;;;;;;5015927;28;20507;-85
2021/11/30 02:44:47;;;;;;;18.73;8.90;;;9.00;99.90;;;;;;5032601;28;20205;-84
2021/11/30 02:47:15;;;;;;;22.30;9.53;;;9.10;99.90;;;;;;5031229;28;20210;-84
2021/11/30 02:49:44;;;;;;;20.10;9.10;;;9.10;99.90;;;;;;5017702;28;20211;-81
2021/11/30 02:52:13;;;;;;;24.83;9.70;;;9.10;99.90;;;;;;5012260;28;20204;-86
2021/11/30 02:54:43;;;;;;;20.00;8.90;;;9.10;99.90;;;;;;5014159;28;20689;-83
2021/11/30 02:57:12;;;;;;;26.27;9.10;;;9.10;99.90;;;;;;5030798;28;20238;-82
2021/11/30 02:59:41;;;;;;;22.93;8.93;;;9.10;99.90;;;;;;5017303;28;20234;-84
2021/11/30 03:02:12;;;;;;;26.83;9.97;;;9.10;99.90;;;;;;5011750;28;20210;-83
2021/11/30 03:04:39;;;;;;;18.17;8.13;;;9.20;99.90;;;;;;5010670;28;20587;-85
2021/11/30 03:07:11;;;;;;;24.63;8.60;;;9.20;99.90;;;;;;5010325;28;20195;-84
2021/11/30 03:09:38;;;;;;;21.20;7.83;;;9.20;99.90;;;;;;5008881;28;20207;-85
2021/11/30 03:12:07;;;;;;;21.80;9.30;;;9.20;99.90;;;;;;5011666;28;20231;-86
2021/11/30 03:14:34;;;;;;;29.40;8.97;;;9.30;99.90;;;;;;5012242;28;20196;-85
2021/11/30 03:17:01;;;;;;;25.90;8.97;;;9.30;99.90;;;;;;5011371;28;20239;-84
2021/11/30 03:19:29;;;;;;;20.60;7.77;;;9.30;99.90;;;;;;5010729;28;20648;-84
2021/11/30 03:21:56;;;;;;;18.60;7.67;;;9.30;99.90;;;;;;5010115;28;20202;-86
2021/11/30 03:31:47;;;;;;;23.33;7.73;;;9.40;99.90;;;;;;4907274;28;20231;-84
2021/11/30 03:34:18;;;;;;;23.57;8.43;;;9.40;99.90;;;;;;5013716;28;20995;-82
2021/11/30 03:36:47;;;;;;;20.53;8.40;;;9.40;99.90;;;;;;5010762;28;20235;-85
2021/11/30 03:39:18;;;;;;;25.53;7.83;;;9.40;99.90;;;;;;5009322;28;20211;-83
2021/11/30 03:41:46;;;;;;;19.40;7.40;;;9.50;99.90;;;;;;5010435;28;20299;-84
2021/11/30 03:44:14;;;;;;;28.17;9.00;;;9.50;99.90;;;;;;5010487;28;20203;-89
2021/11/30 03:46:40;;;;;;;28.20;8.33;;;9.50;99.90;;;;;;5011155;28;20207;-83
2021/11/30 03:49:10;;;;;;;21.10;7.70;;;9.50;99.90;;;;;;5011966;28;20199;-85
2021/11/30 03:51:38;;;;;;;22.50;8.77;;;9.50;99.90;;;;;;5023531;23;20345;-81
2021/11/30 03:54:06;;;;;;;23.77;7.73;;;9.60;99.90;;;;;;5031143;28;20198;-86
2021/11/30 03:56:33;;;;;;;23.37;7.23;;;9.60;99.90;;;;;;5029950;28;20518;-85
2021/11/30 03:59:00;;;;;;;18.63;7.40;;;9.60;99.90;;;;;;5011532;28;20223;-86
2021/11/30 04:01:27;;;;;;;25.57;7.17;;;9.70;99.90;;;;;;5012118;28;20188;-87
2021/11/30 04:03:55;;;;;;;22.30;7.47;;;9.70;99.90;;;;;;5011602;28;20211;-83
2021/11/30 04:06:22;;;;;;;17.23;6.63;;;9.70;99.90;;;;;;5010979;28;20847;-85
2021/11/30 04:08:51;;;;;;;21.07;6.60;;;9.70;99.90;;;;;;5012369;28;20592;-85
2021/11/30 04:11:20;;;;;;;24.13;7.37;;;9.70;99.90;;;;;;5011707;28;20203;-85
2021/11/30 04:13:48;;;;;;;23.30;6.70;;;9.70;99.90;;;;;;5011608;28;20199;-86
2021/11/30 04:16:15;;;;;;;20.93;7.10;;;9.80;99.90;;;;;;5011127;28;20615;-87
2021/11/30 04:18:42;;;;;;;22.53;7.30;;;9.80;99.90;;;;;;5011499;28;20208;-85
2021/11/30 04:21:08;;;;;;;20.07;6.97;;;9.80;99.90;;;;;;5011499;28;20604;-87
2021/11/30 04:23:35;;;;;;;21.53;6.30;;;9.80;99.90;;;;;;5011178;28;20214;-86
2021/11/30 04:26:03;;;;;;;17.63;6.67;;;9.80;99.90;;;;;;5011110;28;20207;-86
2021/11/30 04:28:31;;;;;;;20.30;6.70;;;9.80;99.90;;;;;;5026555;28;20206;-86
2021/11/30 04:30:58;;;;;;;22.40;7.10;;;9.80;99.90;;;;;;5031203;28;20907;-85
2021/11/30 04:33:25;;;;;;;26.20;8.27;;;9.80;99.90;;;;;;5000234;28;20212;-86
2021/11/30 04:35:52;;;;;;;23.93;6.23;;;9.90;99.90;;;;;;4991168;28;20219;-86
2021/11/30 04:38:19;;;;;;;28.53;6.33;;;9.80;99.90;;;;;;4991868;28;20230;-83
2021/11/30 04:40:46;;;;;;;14.97;4.93;;;9.80;99.90;;;;;;4988991;28;20488;-86
2021/11/30 04:43:14;;;;;;;18.07;5.10;;;9.80;99.90;;;;;;5000842;28;20518;-84
2021/11/30 04:45:54;;;;;;;14.80;5.33;;;9.80;99.90;;;;;;5028493;28;20261;-83
2021/11/30 04:48:21;;;;;;;18.47;5.17;;;9.80;99.90;;;;;;4991961;28;20212;-85
2021/11/30 04:50:51;;;;;;;26.70;6.17;;;9.80;99.90;;;;;;4990246;28;20240;-86
2021/11/30 04:53:19;;;;;;;19.37;6.90;;;9.80;99.90;;;;;;4989778;28;20211;-85
2021/11/30 04:55:47;;;;;;;18.93;5.43;;;9.90;99.90;;;;;;5001191;28;20298;-84
2021/11/30 04:58:15;;;;;;;14.57;5.77;;;9.90;99.90;;;;;;5000845;28;20223;-87
2021/11/30 05:00:42;;;;;;;14.43;5.27;;;9.90;99.90;;;;;;4994097;28;20196;-84
2021/11/30 05:03:10;;;;;;;14.00;5.50;;;9.90;99.90;;;;;;4997950;28;20207;-85
2021/11/30 05:05:37;;;;;;;26.13;6.30;;;9.90;99.90;;;;;;5013829;28;20214;-85
2021/11/30 05:08:05;;;;;;;20.00;5.90;;;9.90;99.90;;;;;;5013879;28;20619;-85
2021/11/30 05:10:32;;;;;;;19.40;6.47;;;9.90;99.90;;;;;;5009833;28;20199;-85
2021/11/30 05:12:59;;;;;;;30.93;7.03;;;10.00;99.90;;;;;;5015472;28;20203;-84
2021/11/30 05:15:27;;;;;;;21.63;6.30;;;10.00;99.90;;;;;;5016214;28;20258;-87
2021/11/30 05:17:54;;;;;;;25.57;7.53;;;10.00;99.90;;;;;;5016376;28;20230;-84
2021/11/30 05:20:21;;;;;;;26.13;6.73;;;10.00;99.90;;;;;;5012832;28;20210;-86
2021/11/30 05:22:49;;;;;;;24.90;6.73;;;10.00;99.90;;;;;;5012634;28;20282;-85
2021/11/30 05:25:17;;;;;;;25.00;6.63;;;10.00;99.90;;;;;;5029525;28;20206;-86
2021/11/30 05:27:44;;;;;;;27.20;7.00;;;10.00;99.90;;;;;;5030853;28;20202;-86
2021/11/30 05:30:14;;;;;;;20.03;5.47;;;10.00;99.90;;;;;;5013255;28;20207;-86
2021/11/30 05:32:42;;;;;;;24.30;5.80;;;10.10;99.90;;;;;;5012093;28;20923;-84
2021/11/30 05:35:11;;;;;;;24.23;6.33;;;10.10;99.90;;;;;;5010077;28;20199;-87
2021/11/30 05:37:38;;;;;;;17.23;5.27;;;10.10;99.90;;;;;;4991842;28;20223;-86
2021/11/30 05:40:07;;;;;;;21.73;5.67;;;10.10;99.90;;;;;;4992875;28;20772;-86
2021/11/30 05:42:33;;;;;;;18.33;5.77;;;10.10;99.90;;;;;;4992913;28;20222;-84
2021/11/30 05:45:00;;;;;;;18.57;6.23;;;10.10;99.90;;;;;;4994636;28;20191;-84
2021/11/30 05:47:27;;;;;;;23.20;6.93;;;10.10;99.90;;;;;;5011486;28;20200;-84
2021/11/30 05:49:55;;;;;;;20.40;5.83;;;10.10;99.90;;;;;;5010881;28;20207;-82
2021/11/30 05:52:22;;;;;;;24.03;6.07;;;10.10;99.90;;;;;;5012148;28;20231;-84
2021/11/30 05:54:50;;;;;;;31.00;6.80;;;10.20;99.90;;;;;;5012352;28;20222;-83
2021/11/30 05:57:18;;;;;;;25.60;7.27;;;10.10;99.90;;;;;;5011870;28;20562;-83
2021/11/30 05:59:46;;;;;;;22.10;5.77;;;10.20;99.90;;;;;;5011646;28;20571;-85
2021/11/30 06:02:13;;;;;;;22.40;5.77;;;10.20;99.90;;;;;;5012512;28;20237;-84
2021/11/30 06:04:40;;;;;;;22.63;5.70;;;10.10;99.90;;;;;;5018132;23;20250;-86
2021/11/30 06:07:08;;;;;;;19.07;5.50;;;10.20;99.90;;;;;;5012720;28;20206;-85
2021/11/30 06:09:36;;;;;;;25.73;5.80;;;10.20;99.90;;;;;;5011807;28;20342;-86
2021/11/30 06:12:04;;;;;;;22.13;5.40;;;10.20;99.90;;;;;;5012995;28;20229;-85
2021/11/30 06:14:31;;;;;;;22.30;6.17;;;10.20;99.90;;;;;;5011928;28;20207;-85
2021/11/30 06:16:58;;;;;;;29.70;5.93;;;10.20;99.90;;;;;;5013093;28;20223;-85
2021/11/30 06:19:25;;;;;;;29.40;5.70;;;10.20;99.90;;;;;;5009874;28;20292;-82
2021/11/30 06:21:52;;;;;;;23.60;5.13;;;10.20;99.90;;;;;;4992605;28;20205;-83
2021/11/30 06:24:21;;;;;;;23.90;6.07;;;10.20;99.90;;;;;;4992277;28;20204;-83
2021/11/30 06:26:49;;;;;;;29.93;7.23;;;10.20;99.90;;;;;;4992249;28;20207;-81
2021/11/30 06:29:16;;;;;;;17.80;5.57;;;10.30;99.90;;;;;;4994727;28;20612;-82
2021/11/30 06:31:43;;;;;;;21.63;5.73;;;10.20;99.90;;;;;;5012689;28;20199;-82
2021/11/30 06:34:10;;;;;;;23.17;5.40;;;10.20;99.90;;;;;;5012590;28;20212;-84
2021/11/30 06:36:37;;;;;;;20.40;4.97;;;10.20;99.90;;;;;;5011235;28;20608;-85
2021/11/30 06:39:04;;;;;;;21.70;5.47;;;10.30;99.90;;;;;;4992225;28;20200;-85
2021/11/30 06:41:33;;;;;;;19.80;5.97;;;10.30;99.90;;;;;;4991500;28;20199;-84
2021/11/30 06:43:59;;;;;;;24.07;6.03;;;10.30;99.90;;;;;;4995620;28;20218;-83
2021/11/30 06:46:26;;;;;;;18.80;6.10;;;10.30;99.90;;;;;;5012248;28;20217;-83
2021/11/30 06:48:53;;;;;;;18.03;4.87;;;10.30;99.90;;;;;;5011682;28;20611;-81
2021/11/30 06:51:20;;;;;;;21.60;4.83;;;10.40;99.90;;;;;;5010985;28;20800;-84
2021/11/30 06:53:47;;;;;;;21.77;4.77;;;10.30;99.90;;;;;;5010613;28;20207;-82
2021/11/30 06:56:14;;;;;;;17.50;4.23;;;10.40;99.90;;;;;;5012043;28;20223;-87
2021/11/30 06:58:43;;;;;;;18.47;4.67;;;10.40;99.90;;;;;;5012677;28;20241;-86
2021/11/30 07:01:11;;;;;;;23.40;4.53;;;10.40;99.90;;;;;;5011829;28;20212;-85
2021/11/30 07:03:39;;;;;;;17.90;4.33;;;10.40;99.90;;;;;;5012407;28;20210;-84
2021/11/30 07:06:12;;;;;;;20.40;4.97;;;10.40;99.90;;;;;;5011186;28;20237;-83
2021/11/30 07:08:52;;;;;;;22.80;5.63;;;10.40;99.90;;;;;;5012052;28;21000;-84
2021/11/30 07:11:22;;;;;;;16.73;5.63;;;10.40;99.90;;;;;;5012370;28;20223;-84
2021/11/30 07:13:51;;;;;;;33.47;7.07;;;10.40;99.90;;;;;;5012911;28;20218;-84
2021/11/30 07:16:18;;;;;;;26.90;6.77;;;10.50;99.90;;;;;;5012459;28;20207;-84
2021/11/30 07:18:45;;;;;;;28.47;5.30;;;10.50;99.90;;;;;;5012968;28;20227;-84
2021/11/30 07:21:11;;;;;;;28.40;5.43;;;10.50;99.90;;;;;;5014451;28;20203;-85
2021/11/30 07:23:38;;;;;;;23.37;5.57;;;10.50;99.90;;;;;;5016901;28;20200;-86
2021/11/30 07:26:05;;;;;;;23.37;5.10;;;10.50;99.90;;;;;;5018467;28;20195;-84
2021/11/30 07:28:33;;;;;;;29.57;6.07;;;10.50;99.90;;;;;;5017241;28;20563;-85
2021/11/30 07:31:04;;;;;;;28.80;5.53;;;10.60;99.90;;;;;;5008585;28;20220;-86
2021/11/30 07:33:33;;;;;;;17.43;5.30;;;10.60;99.90;;;;;;4993531;28;20215;-83
2021/11/30 07:36:02;;;;;;;23.33;4.73;;;10.60;99.90;;;;;;4992929;28;20232;-83
2021/11/30 07:38:29;;;;;;;26.30;6.17;;;10.60;99.90;;;;;;4992031;28;20262;-84
2021/11/30 07:40:56;;;;;;;23.77;5.57;;;10.60;99.90;;;;;;4992493;28;20196;-86
2021/11/30 07:43:23;;;;;;;18.00;4.50;;;10.60;99.90;;;;;;4991557;28;20206;-83
2021/11/30 07:45:49;;;;;;;23.40;4.87;;;10.60;99.90;;;;;;5004691;28;20215;-83
2021/11/30 07:48:18;;;;;;;20.03;5.13;;;10.60;99.90;;;;;;5011581;28;20503;-85
2021/11/30 07:50:45;;;;;;;20.07;6.10;;;10.60;99.90;;;;;;5010837;28;20219;-84
2021/11/30 07:53:12;;;;;;;24.27;4.37;;;10.60;99.90;;;;;;5003601;28;20619;-84
2021/11/30 07:55:45;;;;;;;20.50;5.63;;;10.60;99.90;;;;;;4979287;28;20420;-82
2021/11/30 07:58:12;;;;;;;21.83;4.23;;;10.70;99.90;;;;;;4995571;28;20234;-84
2021/11/30 08:00:39;;;;;;;19.70;4.17;;;10.70;99.90;;;;;;5010854;28;20257;-84
2021/11/30 08:03:06;;;;;;;20.03;4.33;;;10.70;99.90;;;;;;5011238;28;20218;-82
2021/11/30 08:05:35;;;;;;;18.57;4.80;;;10.70;99.90;;;;;;5010703;28;20223;-86
2021/11/30 08:08:02;;;;;;;14.70;2.70;;;10.70;99.90;;;;;;5012280;28;20214;-88
2021/11/30 08:10:29;;;;;;;7.13;1.50;;;10.60;99.90;;;;;;5010083;28;20207;-84
2021/11/30 08:12:57;;;;;;;8.20;1.50;;;10.40;99.90;;;;;;5008933;28;20207;-85
2021/11/30 08:15:25;;;;;;;9.07;1.70;;;10.30;99.90;;;;;;5005171;28;20211;-86
2021/11/30 08:17:51;;;;;;;6.57;2.07;;;10.20;99.90;;;;;;5007614;28;20710;-86
2021/11/30 08:20:18;;;;;;;6.17;2.37;;;10.20;99.90;;;;;;5007732;28;20198;-84
2021/11/30 08:22:47;;;;;;;7.57;1.47;;;10.10;99.90;;;;;;5010472;28;20592;-84
2021/11/30 08:25:14;;;;;;;8.93;1.93;;;10.10;99.90;;;;;;5011359;28;20211;-85
2021/11/30 08:27:42;;;;;;;11.87;1.77;;;10.00;99.90;;;;;;5010827;28;20760;-85
2021/11/30 08:30:10;;;;;;;10.73;1.70;;;10.00;99.90;;;;;;5005762;28;20579;-83
2021/11/30 08:32:38;;;;;;;15.37;2.53;;;10.00;99.90;;;;;;4992540;28;20203;-84
2021/11/30 08:35:06;;;;;;;16.53;3.20;;;9.90;99.90;;;;;;4995737;28;20199;-84
2021/11/30 08:37:33;;;;;;;15.03;3.17;;;10.00;99.90;;;;;;4993748;28;20640;-83
2021/11/30 08:40:03;;;;;;;14.30;2.53;;;10.00;99.90;;;;;;5006536;28;20199;-82
2021/11/30 08:42:30;;;;;;;10.97;2.60;;;9.90;99.90;;;;;;5011719;28;20315;-83
2021/11/30 08:44:57;;;;;;;10.97;2.33;;;9.90;99.90;;;;;;4994306;28;20215;-81
2021/11/30 08:47:25;;;;;;;12.10;2.57;;;9.90;99.90;;;;;;4993671;28;20204;-82
2021/11/30 08:49:54;;;;;;;17.30;2.90;;;9.90;99.90;;;;;;4993478;28;20223;-83
2021/11/30 08:52:26;;;;;;;15.90;2.57;;;9.80;99.90;;;;;;4993450;28;20199;-84
2021/11/30 08:54:54;;;;;;;12.83;2.67;;;9.80;99.90;;;;;;4995465;28;20203;-82
2021/11/30 08:57:25;;;;;;;15.23;2.90;;;9.80;99.90;;;;;;5013389;28;20299;-84
2021/11/30 08:59:52;;;;;;;11.00;2.17;;;9.80;99.90;;;;;;5013589;28;20226;-83
2021/11/30 09:02:20;;;;;;;9.77;3.00;;;9.80;99.90;;;;;;5013695;28;20210;-84
2021/11/30 09:04:47;;;;;;;10.00;2.47;;;9.80;99.90;;;;;;5013547;28;20247;-83
2021/11/30 09:07:17;;;;;;;9.47;2.20;;;9.70;99.90;;;;;;5013855;28;20843;-82
2021/11/30 09:09:44;;;;;;;12.70;2.40;;;9.70;99.90;;;;;;5012860;28;20203;-82
2021/11/30 09:12:12;;;;;;;13.53;2.30;;;9.80;99.90;;;;;;5013498;28;20223;-84
2021/11/30 09:14:40;;;;;;;12.90;2.43;;;9.70;99.90;;;;;;5012013;28;20927;-85
2021/11/30 09:17:07;;;;;;;13.50;3.33;;;9.80;99.90;;;;;;5014283;28;20196;-85
2021/11/30 09:19:34;;;;;;;10.00;2.20;;;9.80;99.90;;;;;;5014116;28;20415;-84
2021/11/30 09:22:02;;;;;;;13.47;2.97;;;9.70;99.90;;;;;;5014530;28;20203;-84
2021/11/30 09:24:30;;;;;;;15.20;2.50;;;9.80;99.90;;;;;;5013188;28;20219;-83
2021/11/30 09:26:57;;;;;;;12.43;2.50;;;9.70;99.90;;;;;;5014566;28;20195;-83
2021/11/30 09:29:24;;;;;;;14.00;2.40;;;9.80;99.90;;;;;;5013581;28;20617;-85
2021/11/30 09:31:52;;;;;;;15.27;2.17;;;9.80;99.90;;;;;;5013596;28;20690;-83
2021/11/30 09:34:19;;;;;;;9.30;2.37;;;9.80;99.90;;;;;;5012350;28;20214;-84
2021/11/30 09:36:47;;;;;;;10.30;1.90;;;9.80;99.90;;;;;;5012260;28;20643;-83
2021/11/30 09:39:15;;;;;;;10.37;2.53;;;9.80;99.90;;;;;;5012692;28;20234;-81
2021/11/30 09:41:42;;;;;;;9.97;1.77;;;9.80;99.90;;;;;;5013116;28;20273;-84
2021/11/30 09:44:10;;;;;;;10.37;1.77;;;9.80;99.90;;;;;;5011772;28;20215;-83
2021/11/30 09:46:37;;;;;;;11.30;2.30;;;9.90;99.90;;;;;;5011164;28;20203;-84
2021/11/30 09:49:05;;;;;;;10.60;2.47;;;9.90;99.90;;;;;;5011397;28;20309;-83
2021/11/30 09:51:32;;;;;;;8.50;1.80;;;9.90;99.90;;;;;;5012439;28;20191;-82
2021/11/30 09:53:59;;;;;;;10.53;1.87;;;9.90;99.90;;;;;;5012562;28;20210;-82
2021/11/30 09:56:26;;;;;;;7.50;1.60;;;9.90;99.90;;;;;;4999014;28;20254;-83
2021/11/30 09:58:53;;;;;;;9.53;1.60;;;9.90;99.90;;;;;;4992060;28;20521;-83
2021/11/30 10:01:20;;;;;;;6.47;1.70;;;9.90;99.90;;;;;;4992807;28;20208;-82
2021/11/30 10:03:48;;;;;;;9.93;2.33;;;9.90;99.90;;;;;;4992829;28;20238;-82
2021/11/30 10:06:16;;;;;;;8.07;1.63;;;9.90;99.90;;;;;;4999536;28;20232;-83
2021/11/30 10:08:45;;;;;;;7.03;1.93;;;10.00;99.90;;;;;;4993271;28;20200;-83
2021/11/30 10:11:30;;;;;;;9.57;1.80;;;10.00;99.90;;;;;;4992097;28;20196;-84
2021/11/30 10:14:19;;;;;;;14.53;3.57;;;10.00;99.90;;;;;;4992508;28;20192;-83
2021/11/30 10:17:18;;;;;;;13.83;2.83;;;10.10;99.90;;;;;;5005657;28;20549;-84
2021/11/30 10:19:53;;;;;;;13.73;2.97;;;10.00;99.90;;;;;;5011622;28;20715;-84
2021/11/30 10:22:42;;;;;;;8.67;1.80;;;10.00;99.90;;;;;;5013005;28;20206;-84
2021/11/30 10:25:11;;;;;;;13.33;3.40;;;10.00;99.90;;;;;;5000263;28;20211;-84
2021/11/30 10:27:43;;;;;;;12.70;2.33;;;10.00;99.90;;;;;;5012595;28;20211;-84
2021/11/30 10:30:13;;;;;;;8.60;1.77;;;10.10;99.90;;;;;;5013004;28;20519;-86
2021/11/30 10:32:43;;;;;;;8.47;1.90;;;10.10;99.90;;;;;;5012003;28;20549;-83
2021/11/30 10:35:10;;;;;;;11.40;1.83;;;10.10;99.90;;;;;;5012798;28;20269;-84
2021/11/30 10:37:42;;;;;;;14.00;2.90;;;10.00;99.90;;;;;;5011622;28;20633;-84
2021/11/30 10:40:12;;;;;;;10.47;2.03;;;10.00;99.90;;;;;;5012300;28;20487;-83
2021/11/30 10:42:46;;;;;;;8.57;1.53;;;10.00;99.90;;;;;;5012165;28;20195;-83
2021/11/30 10:45:25;;;;;;;12.23;1.83;;;10.00;99.90;;;;;;5012630;28;20202;-83
2021/11/30 10:47:52;;;;;;;8.00;1.63;;;10.00;99.90;;;;;;5011623;28;20202;-84
2021/11/30 10:50:22;;;;;;;11.17;2.23;;;10.00;99.90;;;;;;5009843;28;20200;-84
2021/11/30 10:52:52;;;;;;;7.00;1.50;;;10.00;99.90;;;;;;5012447;28;20221;-85
2021/11/30 10:55:20;;;;;;;8.13;1.60;;;9.90;99.90;;;;;;5012453;28;20646;-84
2021/11/30 10:57:49;;;;;;;9.17;1.50;;;9.90;99.90;;;;;;5011968;28;20226;-84
2021/11/30 11:00:22;;;;;;;12.77;2.03;;;10.00;99.90;;;;;;5012324;28;20214;-84
2021/11/30 11:02:53;;;;;;;6.80;1.60;;;10.00;99.90;;;;;;5012041;28;20214;-84
2021/11/30 11:05:26;;;;;;;8.43;1.53;;;10.00;99.90;;;;;;5011485;28;20301;-84
2021/11/30 11:08:07;;;;;;;7.97;1.30;;;10.00;99.90;;;;;;5011308;28;20245;-83
2021/11/30 11:10:36;;;;;;;5.47;1.27;;;9.90;99.90;;;;;;5009184;28;20211;-85
2021/11/30 11:13:18;;;;;;;7.00;1.53;;;9.90;99.90;;;;;;5012349;28;20231;-84
2021/11/30 11:15:45;;;;;;;7.90;1.40;;;9.80;99.90;;;;;;5012471;28;20201;-85
2021/11/30 11:18:23;;;;;;;8.63;1.67;;;9.90;99.90;;;;;;5012618;28;20219;-86
2021/11/30 11:20:52;;;;;;;7.50;1.93;;;9.90;99.90;;;;;;5008099;28;20214;-86
2021/11/30 11:23:26;;;;;;;8.90;2.20;;;9.90;99.90;;;;;;5012867;28;20191;-86
2021/11/30 11:25:54;;;;;;;9.23;1.70;;;9.90;99.90;;;;;;5020913;28;20202;-85
2021/11/30 11:28:22;;;;;;;6.97;1.90;;;9.90;99.90;;;;;;5016786;28;20226;-87
2021/11/30 11:30:50;;;;;;;10.73;1.97;;;9.90;99.90;;;;;;5012177;28;20230;-84
2021/11/30 11:33:18;;;;;;;7.53;1.70;;;9.90;99.90;;;;;;5009833;28;20197;-84
2021/11/30 11:35:45;;;;;;;10.10;2.60;;;9.90;99.90;;;;;;5010902;28;20218;-85
2021/11/30 11:38:13;;;;;;;8.00;1.43;;;9.90;99.90;;;;;;5008838;28;20298;-85
2021/11/30 11:40:44;;;;;;;6.77;1.40;;;9.90;99.90;;;;;;4989222;28;20246;-85
2021/11/30 11:43:12;;;;;;;7.37;1.47;;;9.90;99.90;;;;;;4989378;28;20315;-83
2021/11/30 11:45:39;;;;;;;6.13;1.70;;;10.00;99.90;;;;;;4990998;28;20854;-87
2021/11/30 11:48:07;;;;;;;7.13;1.53;;;10.00;99.90;;;;;;4997091;28;20203;-83
2021/11/30 11:50:51;;;;;;;7.10;1.17;;;10.00;99.90;;;;;;5010552;28;20238;-85
2021/11/30 11:53:24;;;;;;;5.53;1.23;;;10.00;99.90;;;;;;5010975;28;20899;-84
2021/11/30 11:56:16;;;;;;;6.17;1.40;;;10.00;99.90;;;;;;5008988;28;20246;-84
2021/11/30 11:58:45;;;;;;;11.00;5.20;;;10.00;99.90;;;;;;5006074;28;20231;-86
2021/11/30 12:01:18;;;;;;;5.53;1.60;;;10.00;99.90;;;;;;4992047;28;20211;-85
2021/11/30 12:04:02;;;;;;;5.70;1.70;;;10.00;99.90;;;;;;4991718;28;20206;-85
2021/11/30 12:06:31;;;;;;;4.20;1.20;;;10.00;99.90;;;;;;5007933;28;20239;-83
2021/11/30 12:09:19;;;;;;;6.00;1.30;;;10.00;99.90;;;;;;5017282;28;20199;-83
2021/11/30 12:11:49;;;;;;;4.33;1.17;;;10.00;99.90;;;;;;5017818;28;20827;-85
2021/11/30 12:14:21;;;;;;;5.83;1.13;;;9.90;99.90;;;;;;5018629;28;20206;-85
2021/11/30 12:17:09;;;;;;;4.90;1.00;;;9.90;99.90;;;;;;5036699;28;20277;-85
2021/11/30 12:19:39;;;;;;;3.50;0.93;;;10.00;99.90;;;;;;5032799;28;20634;-85
2021/11/30 12:22:06;;;;;;;3.03;1.10;;;9.90;99.90;;;;;;5037059;28;20617;-84
2021/11/30 12:24:36;;;;;;;6.87;2.27;;;10.00;99.90;;;;;;5018178;28;20249;-84
2021/11/30 12:27:42;;;;;;;3.13;1.30;;;10.00;99.90;;;;;;5017335;28;20196;-85
2021/11/30 12:30:38;;;;;;;3.23;1.07;;;9.90;99.90;;;;;;5016937;28;20580;-85
2021/11/30 12:33:07;;;;;;;4.33;1.40;;;10.00;99.90;;;;;;4997734;28;20211;-83
2021/11/30 12:35:54;;;;;;;5.73;1.50;;;10.00;99.90;;;;;;4999630;28;20211;-85
2021/11/30 12:38:24;;;;;;;3.33;0.90;;;9.90;99.90;;;;;;5015564;28;20593;-86
2021/11/30 12:40:52;;;;;;;4.67;1.10;;;9.90;99.90;;;;;;5016884;28;20191;-85
2021/11/30 12:43:28;;;;;;;7.13;1.53;;;9.90;99.90;;;;;;5017336;28;20199;-85
2021/11/30 12:46:00;;;;;;;6.80;1.50;;;9.80;99.90;;;;;;5001315;28;20207;-86
2021/11/30 12:48:36;;;;;;;5.93;1.33;;;9.80;99.90;;;;;;4998068;28;20211;-87
2021/11/30 12:51:26;;;;;;;6.03;1.07;;;9.80;99.90;;;;;;4998134;28;20184;-84
2021/11/30 12:53:55;;;;;;;8.10;1.40;;;9.80;99.90;;;;;;4994305;28;20196;-84
2021/11/30 12:56:44;;;;;;;4.43;1.40;;;9.80;99.90;;;;;;4999272;28;20200;-85
2021/11/30 12:59:12;;;;;;;7.13;1.20;;;9.80;99.90;;;;;;5017830;28;20230;-86
2021/11/30 13:01:40;;;;;;;4.33;1.20;;;9.80;99.90;;;;;;5014702;28;20203;-85
2021/11/30 13:04:31;;;;;;;4.23;0.77;;;9.90;99.90;;;;;;4997836;28;20342;-84